sensor_id;sensor_type;location;lat;lon;timestamp;P1;durP1;ratioP1;P2;durP2;ratioP2
56507;SDS011;42403;53.160;6.368;2022-10-31T00:00:12;0.10;;;0.10;;
56507;SDS011;42403;53.160;6.368;2022-10-31T00:02:38;0.10;;;0.10;;
56507;SDS011;42403;53.160;6.368;2022-10-31T00:05:04;0.10;;;0.10;;
56507;SDS011;42403;53.160;6.368;2022-10-31T00:07:30;0.20;;;0.20;;
56507;SDS011;42403;53.160;6.368;2022-10-31T00:09:56;0.10;;;0.10;;
56507;SDS011;42403;53.160;6.368;2022-10-31T00:12:22;0.10;;;0.10;;
56507;SDS011;42403;53.160;6.368;2022-10-31T00:14:48;0.10;;;0.10;;
56507;SDS011;42403;53.160;6.368;2022-10-31T00:17:14;0.10;;;0.10;;
56507;SDS011;42403;53.160;6.368;2022-10-31T00:19:40;0.30;;;0.30;;
56507;SDS011;42403;53.160;6.368;2022-10-31T00:22:06;0.10;;;0.10;;
56507;SDS011;42403;53.160;6.368;2022-10-31T00:24:32;0.10;;;0.10;;
56507;SDS011;42403;53.160;6.368;2022-10-31T00:26:58;0.30;;;0.30;;
56507;SDS011;42403;53.160;6.368;2022-10-31T00:29:24;0.10;;;0.10;;
56507;SDS011;42403;53.160;6.368;2022-10-31T00:31:51;0.10;;;0.10;;
56507;SDS011;42403;53.160;6.368;2022-10-31T00:34:17;0.10;;;0.10;;
56507;SDS011;42403;53.160;6.368;2022-10-31T00:36:43;0.03;;;0.03;;
56507;SDS011;42403;53.160;6.368;2022-10-31T00:39:09;0.10;;;0.10;;
56507;SDS011;42403;53.160;6.368;2022-10-31T00:41:35;0.30;;;0.30;;
56507;SDS011;42403;53.160;6.368;2022-10-31T00:44:01;0.10;;;0.10;;
56507;SDS011;42403;53.160;6.368;2022-10-31T00:46:27;0.10;;;0.10;;
56507;SDS011;42403;53.160;6.368;2022-10-31T00:48:53;0.60;;;0.30;;
56507;SDS011;42403;53.160;6.368;2022-10-31T00:51:19;0.10;;;0.10;;
56507;SDS011;42403;53.160;6.368;2022-10-31T00:53:45;0.08;;;0.08;;
56507;SDS011;42403;53.160;6.368;2022-10-31T00:56:12;0.10;;;0.10;;
56507;SDS011;42403;53.160;6.368;2022-10-31T00:58:38;0.20;;;0.20;;
56507;SDS011;42403;53.160;6.368;2022-10-31T01:01:04;0.10;;;0.10;;
56507;SDS011;42403;53.160;6.368;2022-10-31T01:03:31;0.10;;;0.10;;
56507;SDS011;42403;53.160;6.368;2022-10-31T01:06:02;0.10;;;0.10;;
56507;SDS011;42403;53.160;6.368;2022-10-31T01:08:28;0.10;;;0.10;;
56507;SDS011;42403;53.160;6.368;2022-10-31T01:11:08;0.10;;;0.10;;
56507;SDS011;42403;53.160;6.368;2022-10-31T01:13:35;0.30;;;0.30;;
56507;SDS011;42403;53.160;6.368;2022-10-31T01:16:02;0.00;;;0.00;;
56507;SDS011;42403;53.160;6.368;2022-10-31T01:18:29;0.00;;;0.00;;
56507;SDS011;42403;53.160;6.368;2022-10-31T01:23:24;0.30;;;0.30;;
56507;SDS011;42403;53.160;6.368;2022-10-31T01:25:58;0.10;;;0.10;;
56507;SDS011;42403;53.160;6.368;2022-10-31T01:28:24;0.00;;;0.00;;
56507;SDS011;42403;53.160;6.368;2022-10-31T01:30:50;0.70;;;0.35;;
56507;SDS011;42403;53.160;6.368;2022-10-31T01:33:16;0.20;;;0.20;;
56507;SDS011;42403;53.160;6.368;2022-10-31T01:35:42;0.00;;;0.00;;
56507;SDS011;42403;53.160;6.368;2022-10-31T01:38:08;0.10;;;0.10;;
56507;SDS011;42403;53.160;6.368;2022-10-31T01:40:34;0.10;;;0.10;;
56507;SDS011;42403;53.160;6.368;2022-10-31T01:43:00;0.10;;;0.10;;
56507;SDS011;42403;53.160;6.368;2022-10-31T01:45:26;0.10;;;0.10;;
56507;SDS011;42403;53.160;6.368;2022-10-31T01:47:52;0.10;;;0.10;;
56507;SDS011;42403;53.160;6.368;2022-10-31T01:50:25;1.90;;;0.30;;
56507;SDS011;42403;53.160;6.368;2022-10-31T01:52:52;0.10;;;0.10;;
56507;SDS011;42403;53.160;6.368;2022-10-31T01:55:26;0.10;;;0.10;;
56507;SDS011;42403;53.160;6.368;2022-10-31T01:57:54;0.10;;;0.10;;
56507;SDS011;42403;53.160;6.368;2022-10-31T02:00:21;0.10;;;0.10;;
56507;SDS011;42403;53.160;6.368;2022-10-31T02:02:47;0.10;;;0.10;;
56507;SDS011;42403;53.160;6.368;2022-10-31T02:05:16;0.10;;;0.10;;
56507;SDS011;42403;53.160;6.368;2022-10-31T02:07:48;0.10;;;0.10;;
56507;SDS011;42403;53.160;6.368;2022-10-31T02:10:15;0.30;;;0.30;;
56507;SDS011;42403;53.160;6.368;2022-10-31T02:12:42;0.20;;;0.20;;
56507;SDS011;42403;53.160;6.368;2022-10-31T02:15:08;0.00;;;0.00;;
56507;SDS011;42403;53.160;6.368;2022-10-31T02:17:35;0.10;;;0.10;;
56507;SDS011;42403;53.160;6.368;2022-10-31T02:25:07;0.10;;;0.10;;
56507;SDS011;42403;53.160;6.368;2022-10-31T02:30:18;0.50;;;0.30;;
56507;SDS011;42403;53.160;6.368;2022-10-31T02:38:02;0.20;;;0.20;;
56507;SDS011;42403;53.160;6.368;2022-10-31T02:43:26;0.10;;;0.10;;
56507;SDS011;42403;53.160;6.368;2022-10-31T02:48:23;0.10;;;0.10;;
56507;SDS011;42403;53.160;6.368;2022-10-31T02:50:59;0.00;;;0.00;;
56507;SDS011;42403;53.160;6.368;2022-10-31T02:53:26;0.00;;;0.00;;
56507;SDS011;42403;53.160;6.368;2022-10-31T02:55:59;0.10;;;0.10;;
56507;SDS011;42403;53.160;6.368;2022-10-31T02:58:28;0.10;;;0.10;;
56507;SDS011;42403;53.160;6.368;2022-10-31T03:01:11;0.10;;;0.10;;
56507;SDS011;42403;53.160;6.368;2022-10-31T03:06:29;0.05;;;0.05;;
56507;SDS011;42403;53.160;6.368;2022-10-31T03:11:29;0.10;;;0.10;;
56507;SDS011;42403;53.160;6.368;2022-10-31T03:14:05;0.10;;;0.10;;
56507;SDS011;42403;53.160;6.368;2022-10-31T03:16:39;0.10;;;0.10;;
56507;SDS011;42403;53.160;6.368;2022-10-31T03:19:09;0.10;;;0.10;;
56507;SDS011;42403;53.160;6.368;2022-10-31T03:21:41;0.10;;;0.10;;
56507;SDS011;42403;53.160;6.368;2022-10-31T03:24:08;0.10;;;0.10;;
56507;SDS011;42403;53.160;6.368;2022-10-31T03:26:35;0.00;;;0.00;;
56507;SDS011;42403;53.160;6.368;2022-10-31T03:29:03;0.10;;;0.10;;
56507;SDS011;42403;53.160;6.368;2022-10-31T03:31:32;0.10;;;0.10;;
56507;SDS011;42403;53.160;6.368;2022-10-31T03:34:00;0.10;;;0.10;;
56507;SDS011;42403;53.160;6.368;2022-10-31T03:36:26;0.03;;;0.03;;
56507;SDS011;42403;53.160;6.368;2022-10-31T03:38:54;0.40;;;0.40;;
56507;SDS011;42403;53.160;6.368;2022-10-31T03:41:24;0.10;;;0.10;;
56507;SDS011;42403;53.160;6.368;2022-10-31T03:44:01;0.10;;;0.10;;
56507;SDS011;42403;53.160;6.368;2022-10-31T03:46:29;0.10;;;0.10;;
56507;SDS011;42403;53.160;6.368;2022-10-31T03:48:55;0.10;;;0.10;;
56507;SDS011;42403;53.160;6.368;2022-10-31T03:54:12;0.10;;;0.10;;
56507;SDS011;42403;53.160;6.368;2022-10-31T03:56:41;0.30;;;0.30;;
56507;SDS011;42403;53.160;6.368;2022-10-31T03:59:14;0.10;;;0.10;;
56507;SDS011;42403;53.160;6.368;2022-10-31T04:01:43;0.20;;;0.20;;
56507;SDS011;42403;53.160;6.368;2022-10-31T04:04:11;0.10;;;0.10;;
56507;SDS011;42403;53.160;6.368;2022-10-31T04:06:38;0.10;;;0.10;;
56507;SDS011;42403;53.160;6.368;2022-10-31T04:09:05;0.10;;;0.10;;
56507;SDS011;42403;53.160;6.368;2022-10-31T04:11:34;1.48;;;0.43;;
56507;SDS011;42403;53.160;6.368;2022-10-31T04:14:01;0.10;;;0.10;;
56507;SDS011;42403;53.160;6.368;2022-10-31T04:16:28;0.10;;;0.10;;
56507;SDS011;42403;53.160;6.368;2022-10-31T04:18:55;0.10;;;0.10;;
56507;SDS011;42403;53.160;6.368;2022-10-31T04:21:28;0.10;;;0.10;;
56507;SDS011;42403;53.160;6.368;2022-10-31T04:23:54;0.10;;;0.10;;
56507;SDS011;42403;53.160;6.368;2022-10-31T04:26:20;0.10;;;0.10;;
56507;SDS011;42403;53.160;6.368;2022-10-31T04:28:46;0.10;;;0.10;;
56507;SDS011;42403;53.160;6.368;2022-10-31T04:31:12;0.10;;;0.10;;
56507;SDS011;42403;53.160;6.368;2022-10-31T04:33:39;0.10;;;0.10;;
56507;SDS011;42403;53.160;6.368;2022-10-31T04:36:05;0.10;;;0.10;;
56507;SDS011;42403;53.160;6.368;2022-10-31T04:38:31;0.10;;;0.10;;
56507;SDS011;42403;53.160;6.368;2022-10-31T04:40:57;0.10;;;0.10;;
56507;SDS011;42403;53.160;6.368;2022-10-31T04:43:23;0.10;;;0.10;;
56507;SDS011;42403;53.160;6.368;2022-10-31T04:45:49;0.10;;;0.10;;
56507;SDS011;42403;53.160;6.368;2022-10-31T04:48:15;0.10;;;0.10;;
56507;SDS011;42403;53.160;6.368;2022-10-31T04:50:41;0.00;;;0.00;;
56507;SDS011;42403;53.160;6.368;2022-10-31T04:53:07;0.10;;;0.10;;
56507;SDS011;42403;53.160;6.368;2022-10-31T04:55:34;0.10;;;0.10;;
56507;SDS011;42403;53.160;6.368;2022-10-31T04:58:00;0.00;;;0.00;;
56507;SDS011;42403;53.160;6.368;2022-10-31T05:00:27;0.10;;;0.10;;
56507;SDS011;42403;53.160;6.368;2022-10-31T05:02:53;0.10;;;0.10;;
56507;SDS011;42403;53.160;6.368;2022-10-31T05:05:21;0.10;;;0.10;;
56507;SDS011;42403;53.160;6.368;2022-10-31T05:07:47;0.00;;;0.00;;
56507;SDS011;42403;53.160;6.368;2022-10-31T05:10:15;0.00;;;0.00;;
56507;SDS011;42403;53.160;6.368;2022-10-31T05:15:13;0.10;;;0.10;;
56507;SDS011;42403;53.160;6.368;2022-10-31T05:17:39;0.10;;;0.10;;
56507;SDS011;42403;53.160;6.368;2022-10-31T05:20:06;0.10;;;0.10;;
56507;SDS011;42403;53.160;6.368;2022-10-31T05:22:32;0.10;;;0.10;;
56507;SDS011;42403;53.160;6.368;2022-10-31T05:24:58;0.13;;;0.13;;
56507;SDS011;42403;53.160;6.368;2022-10-31T05:27:24;0.20;;;0.20;;
56507;SDS011;42403;53.160;6.368;2022-10-31T05:29:50;0.10;;;0.10;;
56507;SDS011;42403;53.160;6.368;2022-10-31T05:32:16;0.10;;;0.10;;
56507;SDS011;42403;53.160;6.368;2022-10-31T05:34:42;0.17;;;0.17;;
56507;SDS011;42403;53.160;6.368;2022-10-31T05:37:08;0.00;;;0.00;;
56507;SDS011;42403;53.160;6.368;2022-10-31T05:39:34;0.20;;;0.20;;
56507;SDS011;42403;53.160;6.368;2022-10-31T05:42:00;0.10;;;0.10;;
56507;SDS011;42403;53.160;6.368;2022-10-31T05:44:26;0.08;;;0.08;;
56507;SDS011;42403;53.160;6.368;2022-10-31T05:46:52;0.10;;;0.10;;
56507;SDS011;42403;53.160;6.368;2022-10-31T05:49:18;0.10;;;0.10;;
56507;SDS011;42403;53.160;6.368;2022-10-31T05:51:44;0.00;;;0.00;;
56507;SDS011;42403;53.160;6.368;2022-10-31T05:54:10;0.10;;;0.10;;
56507;SDS011;42403;53.160;6.368;2022-10-31T05:56:36;0.17;;;0.17;;
56507;SDS011;42403;53.160;6.368;2022-10-31T05:59:02;0.10;;;0.10;;
56507;SDS011;42403;53.160;6.368;2022-10-31T06:01:28;0.10;;;0.10;;
56507;SDS011;42403;53.160;6.368;2022-10-31T06:03:54;0.10;;;0.10;;
56507;SDS011;42403;53.160;6.368;2022-10-31T06:06:20;0.30;;;0.30;;
56507;SDS011;42403;53.160;6.368;2022-10-31T06:08:46;0.20;;;0.20;;
56507;SDS011;42403;53.160;6.368;2022-10-31T06:11:12;0.10;;;0.10;;
56507;SDS011;42403;53.160;6.368;2022-10-31T06:13:38;0.10;;;0.10;;
56507;SDS011;42403;53.160;6.368;2022-10-31T06:16:04;0.10;;;0.10;;
56507;SDS011;42403;53.160;6.368;2022-10-31T06:18:30;0.10;;;0.10;;
56507;SDS011;42403;53.160;6.368;2022-10-31T06:20:56;0.10;;;0.10;;
56507;SDS011;42403;53.160;6.368;2022-10-31T06:23:22;0.10;;;0.10;;
56507;SDS011;42403;53.160;6.368;2022-10-31T06:25:49;0.10;;;0.10;;
56507;SDS011;42403;53.160;6.368;2022-10-31T06:28:15;0.10;;;0.10;;
56507;SDS011;42403;53.160;6.368;2022-10-31T06:30:41;0.50;;;0.50;;
56507;SDS011;42403;53.160;6.368;2022-10-31T06:33:07;0.60;;;0.50;;
56507;SDS011;42403;53.160;6.368;2022-10-31T06:35:33;0.10;;;0.10;;
56507;SDS011;42403;53.160;6.368;2022-10-31T06:37:59;0.10;;;0.10;;
56507;SDS011;42403;53.160;6.368;2022-10-31T06:40:26;0.10;;;0.10;;
56507;SDS011;42403;53.160;6.368;2022-10-31T06:42:55;1.00;;;1.00;;
56507;SDS011;42403;53.160;6.368;2022-10-31T06:45:22;0.10;;;0.10;;
56507;SDS011;42403;53.160;6.368;2022-10-31T06:47:52;0.10;;;0.10;;
56507;SDS011;42403;53.160;6.368;2022-10-31T06:50:18;0.20;;;0.20;;
56507;SDS011;42403;53.160;6.368;2022-10-31T06:52:49;0.10;;;0.10;;
56507;SDS011;42403;53.160;6.368;2022-10-31T06:55:15;0.07;;;0.07;;
56507;SDS011;42403;53.160;6.368;2022-10-31T06:57:41;0.20;;;0.20;;
56507;SDS011;42403;53.160;6.368;2022-10-31T07:00:08;0.40;;;0.40;;
56507;SDS011;42403;53.160;6.368;2022-10-31T07:02:34;0.10;;;0.10;;
56507;SDS011;42403;53.160;6.368;2022-10-31T07:05:00;0.13;;;0.13;;
56507;SDS011;42403;53.160;6.368;2022-10-31T07:07:26;0.10;;;0.10;;
56507;SDS011;42403;53.160;6.368;2022-10-31T07:09:52;0.10;;;0.10;;
56507;SDS011;42403;53.160;6.368;2022-10-31T07:12:18;0.25;;;0.25;;
56507;SDS011;42403;53.160;6.368;2022-10-31T07:14:44;0.10;;;0.10;;
56507;SDS011;42403;53.160;6.368;2022-10-31T07:17:10;0.15;;;0.15;;
56507;SDS011;42403;53.160;6.368;2022-10-31T07:19:36;0.10;;;0.10;;
56507;SDS011;42403;53.160;6.368;2022-10-31T07:22:02;0.10;;;0.10;;
56507;SDS011;42403;53.160;6.368;2022-10-31T07:24:28;0.10;;;0.10;;
56507;SDS011;42403;53.160;6.368;2022-10-31T07:26:55;0.10;;;0.10;;
56507;SDS011;42403;53.160;6.368;2022-10-31T07:29:21;0.50;;;0.50;;
56507;SDS011;42403;53.160;6.368;2022-10-31T07:31:47;0.10;;;0.10;;
56507;SDS011;42403;53.160;6.368;2022-10-31T07:34:13;0.10;;;0.10;;
56507;SDS011;42403;53.160;6.368;2022-10-31T07:36:39;0.10;;;0.10;;
56507;SDS011;42403;53.160;6.368;2022-10-31T07:39:05;0.03;;;0.03;;
56507;SDS011;42403;53.160;6.368;2022-10-31T07:41:31;0.10;;;0.10;;
56507;SDS011;42403;53.160;6.368;2022-10-31T07:43:57;0.30;;;0.30;;
56507;SDS011;42403;53.160;6.368;2022-10-31T07:46:23;0.20;;;0.20;;
56507;SDS011;42403;53.160;6.368;2022-10-31T07:48:49;0.10;;;0.10;;
56507;SDS011;42403;53.160;6.368;2022-10-31T07:51:15;0.17;;;0.17;;
56507;SDS011;42403;53.160;6.368;2022-10-31T07:53:41;0.10;;;0.10;;
56507;SDS011;42403;53.160;6.368;2022-10-31T07:56:07;0.20;;;0.20;;
56507;SDS011;42403;53.160;6.368;2022-10-31T07:58:33;0.40;;;0.40;;
56507;SDS011;42403;53.160;6.368;2022-10-31T08:00:59;0.10;;;0.10;;
56507;SDS011;42403;53.160;6.368;2022-10-31T08:03:25;0.40;;;0.40;;
56507;SDS011;42403;53.160;6.368;2022-10-31T08:05:51;0.20;;;0.20;;
56507;SDS011;42403;53.160;6.368;2022-10-31T08:08:18;0.20;;;0.20;;
56507;SDS011;42403;53.160;6.368;2022-10-31T08:10:44;0.10;;;0.10;;
56507;SDS011;42403;53.160;6.368;2022-10-31T08:13:11;0.13;;;0.13;;
56507;SDS011;42403;53.160;6.368;2022-10-31T08:15:38;0.10;;;0.10;;
56507;SDS011;42403;53.160;6.368;2022-10-31T08:18:06;0.10;;;0.10;;
56507;SDS011;42403;53.160;6.368;2022-10-31T08:20:36;0.35;;;0.28;;
56507;SDS011;42403;53.160;6.368;2022-10-31T08:23:03;0.20;;;0.20;;
56507;SDS011;42403;53.160;6.368;2022-10-31T08:25:30;0.20;;;0.20;;
56507;SDS011;42403;53.160;6.368;2022-10-31T08:27:56;0.10;;;0.10;;
56507;SDS011;42403;53.160;6.368;2022-10-31T08:30:23;0.20;;;0.20;;
56507;SDS011;42403;53.160;6.368;2022-10-31T08:35:27;0.20;;;0.20;;
56507;SDS011;42403;53.160;6.368;2022-10-31T08:37:54;0.00;;;0.00;;
56507;SDS011;42403;53.160;6.368;2022-10-31T08:40:20;1.40;;;1.00;;
56507;SDS011;42403;53.160;6.368;2022-10-31T08:42:46;0.03;;;0.03;;
56507;SDS011;42403;53.160;6.368;2022-10-31T08:45:12;0.10;;;0.10;;
56507;SDS011;42403;53.160;6.368;2022-10-31T08:47:39;0.10;;;0.10;;
56507;SDS011;42403;53.160;6.368;2022-10-31T08:50:05;0.10;;;0.10;;
56507;SDS011;42403;53.160;6.368;2022-10-31T08:52:31;0.10;;;0.10;;
56507;SDS011;42403;53.160;6.368;2022-10-31T08:54:57;0.10;;;0.10;;
56507;SDS011;42403;53.160;6.368;2022-10-31T08:57:23;1.10;;;0.50;;
56507;SDS011;42403;53.160;6.368;2022-10-31T08:59:49;0.10;;;0.10;;
56507;SDS011;42403;53.160;6.368;2022-10-31T09:02:15;0.90;;;0.70;;
56507;SDS011;42403;53.160;6.368;2022-10-31T09:04:41;0.17;;;0.17;;
56507;SDS011;42403;53.160;6.368;2022-10-31T09:07:07;0.10;;;0.10;;
56507;SDS011;42403;53.160;6.368;2022-10-31T09:09:33;0.30;;;0.30;;
56507;SDS011;42403;53.160;6.368;2022-10-31T09:11:59;0.10;;;0.10;;
56507;SDS011;42403;53.160;6.368;2022-10-31T09:14:25;0.10;;;0.10;;
56507;SDS011;42403;53.160;6.368;2022-10-31T09:16:51;0.10;;;0.10;;
56507;SDS011;42403;53.160;6.368;2022-10-31T09:19:17;0.10;;;0.10;;
56507;SDS011;42403;53.160;6.368;2022-10-31T09:21:43;0.10;;;0.10;;
56507;SDS011;42403;53.160;6.368;2022-10-31T09:24:09;0.50;;;0.50;;
56507;SDS011;42403;53.160;6.368;2022-10-31T09:26:35;0.10;;;0.10;;
56507;SDS011;42403;53.160;6.368;2022-10-31T09:29:02;0.17;;;0.17;;
56507;SDS011;42403;53.160;6.368;2022-10-31T09:31:28;1.60;;;0.60;;
56507;SDS011;42403;53.160;6.368;2022-10-31T09:33:54;0.60;;;0.60;;
56507;SDS011;42403;53.160;6.368;2022-10-31T09:36:20;0.60;;;0.50;;
56507;SDS011;42403;53.160;6.368;2022-10-31T09:38:46;0.20;;;0.20;;
56507;SDS011;42403;53.160;6.368;2022-10-31T09:41:27;0.20;;;0.20;;
56507;SDS011;42403;53.160;6.368;2022-10-31T09:43:58;0.10;;;0.10;;
56507;SDS011;42403;53.160;6.368;2022-10-31T09:51:54;0.10;;;0.10;;
56507;SDS011;42403;53.160;6.368;2022-10-31T09:54:20;0.10;;;0.10;;
56507;SDS011;42403;53.160;6.368;2022-10-31T09:56:47;0.10;;;0.10;;
56507;SDS011;42403;53.160;6.368;2022-10-31T09:59:28;0.17;;;0.17;;
56507;SDS011;42403;53.160;6.368;2022-10-31T10:01:56;0.10;;;0.10;;
56507;SDS011;42403;53.160;6.368;2022-10-31T10:07:24;0.10;;;0.10;;
56507;SDS011;42403;53.160;6.368;2022-10-31T10:09:52;0.80;;;0.50;;
56507;SDS011;42403;53.160;6.368;2022-10-31T10:17:36;0.50;;;0.50;;
56507;SDS011;42403;53.160;6.368;2022-10-31T10:20:13;0.50;;;0.50;;
56507;SDS011;42403;53.160;6.368;2022-10-31T10:23:02;0.40;;;0.30;;
56507;SDS011;42403;53.160;6.368;2022-10-31T10:25:39;0.20;;;0.20;;
56507;SDS011;42403;53.160;6.368;2022-10-31T10:28:20;0.10;;;0.10;;
56507;SDS011;42403;53.160;6.368;2022-10-31T10:30:48;37.03;;;35.08;;
56507;SDS011;42403;53.160;6.368;2022-10-31T10:33:20;107.13;;;101.77;;
56507;SDS011;42403;53.160;6.368;2022-10-31T10:35:49;117.18;;;111.18;;
56507;SDS011;42403;53.160;6.368;2022-10-31T10:38:27;146.23;;;138.77;;
56507;SDS011;42403;53.160;6.368;2022-10-31T10:40:55;61.83;;;58.45;;
56507;SDS011;42403;53.160;6.368;2022-10-31T10:43:32;203.85;;;192.85;;
56507;SDS011;42403;53.160;6.368;2022-10-31T10:46:02;61.40;;;58.28;;
56507;SDS011;42403;53.160;6.368;2022-10-31T10:49:00;2.35;;;2.25;;
56507;SDS011;42403;53.160;6.368;2022-10-31T10:56:51;0.20;;;0.20;;
56507;SDS011;42403;53.160;6.368;2022-10-31T10:59:19;0.40;;;0.40;;
56507;SDS011;42403;53.160;6.368;2022-10-31T11:01:48;0.40;;;0.40;;
56507;SDS011;42403;53.160;6.368;2022-10-31T11:04:21;0.40;;;0.40;;
56507;SDS011;42403;53.160;6.368;2022-10-31T11:09:45;4.60;;;1.00;;
56507;SDS011;42403;53.160;6.368;2022-10-31T11:17:20;0.30;;;0.30;;
56507;SDS011;42403;53.160;6.368;2022-10-31T11:19:46;0.05;;;0.05;;
56507;SDS011;42403;53.160;6.368;2022-10-31T11:22:16;0.10;;;0.10;;
56507;SDS011;42403;53.160;6.368;2022-10-31T11:24:43;0.40;;;0.40;;
56507;SDS011;42403;53.160;6.368;2022-10-31T11:27:12;0.10;;;0.10;;
56507;SDS011;42403;53.160;6.368;2022-10-31T11:29:39;0.70;;;0.47;;
56507;SDS011;42403;53.160;6.368;2022-10-31T11:32:05;0.20;;;0.20;;
56507;SDS011;42403;53.160;6.368;2022-10-31T11:37:11;0.20;;;0.20;;
56507;SDS011;42403;53.160;6.368;2022-10-31T11:39:41;0.10;;;0.10;;
56507;SDS011;42403;53.160;6.368;2022-10-31T11:42:07;0.10;;;0.10;;
56507;SDS011;42403;53.160;6.368;2022-10-31T11:44:33;0.20;;;0.20;;
56507;SDS011;42403;53.160;6.368;2022-10-31T11:47:00;0.10;;;0.10;;
56507;SDS011;42403;53.160;6.368;2022-10-31T11:51:58;1.50;;;0.70;;
56507;SDS011;42403;53.160;6.368;2022-10-31T11:54:27;0.60;;;0.60;;
56507;SDS011;42403;53.160;6.368;2022-10-31T11:56:54;0.38;;;0.38;;
56507;SDS011;42403;53.160;6.368;2022-10-31T11:59:27;0.20;;;0.20;;
56507;SDS011;42403;53.160;6.368;2022-10-31T12:01:54;0.10;;;0.10;;
56507;SDS011;42403;53.160;6.368;2022-10-31T12:04:23;0.10;;;0.10;;
56507;SDS011;42403;53.160;6.368;2022-10-31T12:06:53;0.10;;;0.10;;
56507;SDS011;42403;53.160;6.368;2022-10-31T12:09:25;0.20;;;0.20;;
56507;SDS011;42403;53.160;6.368;2022-10-31T12:14:40;0.20;;;0.20;;
56507;SDS011;42403;53.160;6.368;2022-10-31T12:22:15;0.40;;;0.40;;
56507;SDS011;42403;53.160;6.368;2022-10-31T12:32:21;0.77;;;0.68;;
56507;SDS011;42403;53.160;6.368;2022-10-31T12:53:18;0.40;;;0.40;;
56507;SDS011;42403;53.160;6.368;2022-10-31T12:58:36;0.20;;;0.20;;
56507;SDS011;42403;53.160;6.368;2022-10-31T13:01:14;0.10;;;0.10;;
56507;SDS011;42403;53.160;6.368;2022-10-31T13:06:19;0.10;;;0.10;;
56507;SDS011;42403;53.160;6.368;2022-10-31T13:08:51;0.00;;;0.00;;
56507;SDS011;42403;53.160;6.368;2022-10-31T13:11:23;0.00;;;0.00;;
56507;SDS011;42403;53.160;6.368;2022-10-31T13:14:07;0.10;;;0.10;;
56507;SDS011;42403;53.160;6.368;2022-10-31T13:16:39;0.30;;;0.30;;
56507;SDS011;42403;53.160;6.368;2022-10-31T13:21:45;0.10;;;0.10;;
56507;SDS011;42403;53.160;6.368;2022-10-31T13:24:31;0.10;;;0.10;;
56507;SDS011;42403;53.160;6.368;2022-10-31T13:26:57;0.00;;;0.00;;
56507;SDS011;42403;53.160;6.368;2022-10-31T13:31:51;0.10;;;0.10;;
56507;SDS011;42403;53.160;6.368;2022-10-31T13:36:53;0.10;;;0.10;;
56507;SDS011;42403;53.160;6.368;2022-10-31T13:44:47;0.10;;;0.10;;
56507;SDS011;42403;53.160;6.368;2022-10-31T13:47:26;0.10;;;0.10;;
56507;SDS011;42403;53.160;6.368;2022-10-31T13:52:37;0.20;;;0.20;;
56507;SDS011;42403;53.160;6.368;2022-10-31T13:55:03;0.10;;;0.10;;
56507;SDS011;42403;53.160;6.368;2022-10-31T13:57:31;0.50;;;0.30;;
56507;SDS011;42403;53.160;6.368;2022-10-31T14:00:22;0.00;;;0.00;;
56507;SDS011;42403;53.160;6.368;2022-10-31T14:02:47;0.10;;;0.10;;
56507;SDS011;42403;53.160;6.368;2022-10-31T14:07:46;0.10;;;0.10;;
56507;SDS011;42403;53.160;6.368;2022-10-31T14:10:32;0.10;;;0.10;;
56507;SDS011;42403;53.160;6.368;2022-10-31T14:13:06;0.10;;;0.10;;
56507;SDS011;42403;53.160;6.368;2022-10-31T14:15:33;0.20;;;0.20;;
56507;SDS011;42403;53.160;6.368;2022-10-31T14:18:00;0.40;;;0.30;;
56507;SDS011;42403;53.160;6.368;2022-10-31T14:20:40;0.10;;;0.10;;
56507;SDS011;42403;53.160;6.368;2022-10-31T14:25:51;0.20;;;0.20;;
56507;SDS011;42403;53.160;6.368;2022-10-31T14:28:19;0.10;;;0.10;;
56507;SDS011;42403;53.160;6.368;2022-10-31T14:30:53;0.10;;;0.10;;
56507;SDS011;42403;53.160;6.368;2022-10-31T14:33:19;0.10;;;0.10;;
56507;SDS011;42403;53.160;6.368;2022-10-31T14:38:27;0.10;;;0.10;;
56507;SDS011;42403;53.160;6.368;2022-10-31T14:48:52;0.10;;;0.10;;
56507;SDS011;42403;53.160;6.368;2022-10-31T14:51:23;0.10;;;0.10;;
56507;SDS011;42403;53.160;6.368;2022-10-31T14:53:52;0.13;;;0.13;;
56507;SDS011;42403;53.160;6.368;2022-10-31T14:56:21;0.10;;;0.10;;
56507;SDS011;42403;53.160;6.368;2022-10-31T14:58:49;24.20;;;1.30;;
56507;SDS011;42403;53.160;6.368;2022-10-31T15:01:36;0.10;;;0.10;;
56507;SDS011;42403;53.160;6.368;2022-10-31T15:04:24;0.05;;;0.05;;
56507;SDS011;42403;53.160;6.368;2022-10-31T15:09:36;0.10;;;0.10;;
56507;SDS011;42403;53.160;6.368;2022-10-31T15:14:47;0.10;;;0.10;;
56507;SDS011;42403;53.160;6.368;2022-10-31T15:17:13;0.10;;;0.10;;
56507;SDS011;42403;53.160;6.368;2022-10-31T15:19:39;0.10;;;0.10;;
56507;SDS011;42403;53.160;6.368;2022-10-31T15:22:07;0.10;;;0.10;;
56507;SDS011;42403;53.160;6.368;2022-10-31T15:24:36;0.10;;;0.10;;
56507;SDS011;42403;53.160;6.368;2022-10-31T15:27:04;0.00;;;0.00;;
56507;SDS011;42403;53.160;6.368;2022-10-31T15:29:30;0.10;;;0.10;;
56507;SDS011;42403;53.160;6.368;2022-10-31T15:32:08;0.10;;;0.10;;
56507;SDS011;42403;53.160;6.368;2022-10-31T15:34:38;0.10;;;0.10;;
56507;SDS011;42403;53.160;6.368;2022-10-31T15:37:04;0.30;;;0.30;;
56507;SDS011;42403;53.160;6.368;2022-10-31T15:39:31;0.20;;;0.20;;
56507;SDS011;42403;53.160;6.368;2022-10-31T15:41:58;0.10;;;0.10;;
56507;SDS011;42403;53.160;6.368;2022-10-31T15:44:29;0.10;;;0.10;;
56507;SDS011;42403;53.160;6.368;2022-10-31T15:47:03;0.10;;;0.10;;
56507;SDS011;42403;53.160;6.368;2022-10-31T15:49:36;0.10;;;0.10;;
56507;SDS011;42403;53.160;6.368;2022-10-31T15:54:51;0.10;;;0.10;;
56507;SDS011;42403;53.160;6.368;2022-10-31T15:57:19;0.10;;;0.10;;
56507;SDS011;42403;53.160;6.368;2022-10-31T15:59:46;0.10;;;0.10;;
56507;SDS011;42403;53.160;6.368;2022-10-31T16:02:13;0.10;;;0.10;;
56507;SDS011;42403;53.160;6.368;2022-10-31T16:07:35;0.13;;;0.13;;
56507;SDS011;42403;53.160;6.368;2022-10-31T16:10:02;0.10;;;0.10;;
56507;SDS011;42403;53.160;6.368;2022-10-31T16:12:35;0.10;;;0.10;;
56507;SDS011;42403;53.160;6.368;2022-10-31T16:15:02;0.10;;;0.10;;
56507;SDS011;42403;53.160;6.368;2022-10-31T16:17:29;0.30;;;0.30;;
56507;SDS011;42403;53.160;6.368;2022-10-31T16:22:23;0.90;;;0.60;;
56507;SDS011;42403;53.160;6.368;2022-10-31T16:25:10;0.20;;;0.20;;
56507;SDS011;42403;53.160;6.368;2022-10-31T16:27:37;0.60;;;0.30;;
56507;SDS011;42403;53.160;6.368;2022-10-31T16:33:23;0.20;;;0.15;;
56507;SDS011;42403;53.160;6.368;2022-10-31T16:35:50;0.40;;;0.40;;
56507;SDS011;42403;53.160;6.368;2022-10-31T16:38:16;6.80;;;0.60;;
56507;SDS011;42403;53.160;6.368;2022-10-31T16:40:42;0.10;;;0.10;;
56507;SDS011;42403;53.160;6.368;2022-10-31T16:43:09;0.10;;;0.10;;
56507;SDS011;42403;53.160;6.368;2022-10-31T16:45:37;0.10;;;0.10;;
56507;SDS011;42403;53.160;6.368;2022-10-31T16:48:11;0.10;;;0.10;;
56507;SDS011;42403;53.160;6.368;2022-10-31T16:50:39;0.10;;;0.10;;
56507;SDS011;42403;53.160;6.368;2022-10-31T16:53:06;0.30;;;0.30;;
56507;SDS011;42403;53.160;6.368;2022-10-31T16:55:32;0.57;;;0.50;;
56507;SDS011;42403;53.160;6.368;2022-10-31T16:58:00;0.10;;;0.10;;
56507;SDS011;42403;53.160;6.368;2022-10-31T17:00:26;0.10;;;0.10;;
56507;SDS011;42403;53.160;6.368;2022-10-31T17:02:56;2.10;;;0.55;;
56507;SDS011;42403;53.160;6.368;2022-10-31T17:05:22;0.00;;;0.00;;
56507;SDS011;42403;53.160;6.368;2022-10-31T17:07:55;0.10;;;0.10;;
56507;SDS011;42403;53.160;6.368;2022-10-31T17:10:21;0.10;;;0.10;;
56507;SDS011;42403;53.160;6.368;2022-10-31T17:12:47;0.10;;;0.10;;
56507;SDS011;42403;53.160;6.368;2022-10-31T17:15:24;0.00;;;0.00;;
56507;SDS011;42403;53.160;6.368;2022-10-31T17:17:50;0.03;;;0.03;;
56507;SDS011;42403;53.160;6.368;2022-10-31T17:20:18;0.10;;;0.10;;
56507;SDS011;42403;53.160;6.368;2022-10-31T17:22:44;0.30;;;0.30;;
56507;SDS011;42403;53.160;6.368;2022-10-31T17:25:12;0.10;;;0.10;;
56507;SDS011;42403;53.160;6.368;2022-10-31T17:27:39;0.10;;;0.10;;